| time (UTC) | temp C | wind direction | speed KPH | gust KPH | rain 1hr cm | rain 24hr cm | rain mn cm | humidity % | barometer mb |
| 20260502163011 | 17 | 314 | 3.2 | 16.1 | 0.00 | 0.03 | 0.03 | 42 | 1022.7 |
| 20260502161505 | 16 | 274 | 9.7 | 19.3 | 0.00 | 0.03 | 0.03 | 42 | 1022.7 |
| 20260502151602 | 13 | 253 | 9.7 | 17.7 | 0.00 | 0.03 | 0.03 | 57 | 1023.0 |
| 20260502123007 | 4 | 210 | 3.2 | 9.7 | 0.03 | 0.03 | 0.03 | 86 | 1022.2 |
| 20260502121508 | 3 | 221 | 3.2 | 9.7 | 0.03 | 0.03 | 0.03 | 87 | 1022.0 |
| 20260502114505 | 3 | 200 | 4.8 | 11.3 | 0.00 | 0.00 | 0.00 | 88 | 1021.8 |
| 20260502113101 | 3 | 252 | 3.2 | 8.0 | 0.00 | 0.00 | 0.00 | 88 | 1021.7 |
| 20260502111601 | 3 | 242 | 1.6 | 9.7 | 0.00 | 0.00 | 0.00 | 87 | 1021.8 |
| 20260502104559 | 3 | 243 | 4.8 | 9.7 | 0.00 | 0.00 | 0.00 | 88 | 1021.8 |
| 20260502103101 | 3 | 240 | 1.6 | 8.0 | 0.00 | 0.00 | 0.00 | 88 | 1021.8 |
| 20260502101629 | 3 | 244 | 4.8 | 11.3 | 0.00 | 0.00 | 0.00 | 88 | 1021.7 |
| 20260502100117 | 3 | 207 | 1.6 | 6.4 | 0.00 | 0.00 | 0.00 | 88 | 1021.7 |
| 20260502071535 | 4 | 245 | 1.6 | 4.8 | 0.00 | 0.03 | 0.00 | 84 | 1021.5 |
| 20260502070043 | 4 | 317 | 0.0 | 1.6 | 0.00 | 0.03 | 0.00 | 83 | 1021.5 |
| 20260502064530 | 4 | 317 | 0.0 | 0.0 | 0.00 | 0.03 | 0.00 | 82 | 1021.4 |
| 20260502063032 | 5 | 317 | 0.0 | 3.2 | 0.00 | 0.03 | 0.00 | 82 | 1021.3 |
| 20260502061530 | 4 | 317 | 0.0 | 1.6 | 0.00 | 0.03 | 0.00 | 82 | 1021.4 |
| 20260502060031 | 4 | 318 | 0.0 | 0.0 | 0.00 | 0.03 | 0.00 | 83 | 1021.3 |
| 20260502054527 | 4 | 335 | 0.0 | 0.0 | 0.00 | 0.03 | 0.00 | 82 | 1021.3 |
| 20260502053025 | 4 | 335 | 0.0 | 0.0 | 0.00 | 0.03 | 0.00 | 82 | 1021.4 |
| 20260502051528 | 4 | 335 | 0.0 | 0.0 | 0.00 | 0.03 | 0.00 | 81 | 1021.2 |
| 20260502050023 | 5 | 335 | 0.0 | 0.0 | 0.00 | 0.03 | 0.00 | 82 | 1021.0 |
| 20260502044518 | 5 | 339 | 0.0 | 0.0 | 0.00 | 0.03 | 0.03 | 80 | 1020.8 |
| 20260502043015 | 6 | 339 | 0.0 | 0.0 | 0.00 | 0.03 | 0.03 | 80 | 1020.7 |
| 20260502041512 | 6 | 339 | 0.0 | 0.0 | 0.00 | 0.03 | 0.03 | 82 | 1020.6 |
| 20260502040010 | 6 | 339 | 0.0 | 0.0 | 0.00 | 0.03 | 0.03 | 81 | 1020.4 |
| 20260502034507 | 6 | 339 | 0.0 | 0.0 | 0.00 | 0.03 | 0.03 | 79 | 1020.4 |
| 20260502033006 | 6 | 339 | 0.0 | 0.0 | 0.00 | 0.03 | 0.03 | 78 | 1020.4 |
| 20260502031505 | 7 | 339 | 0.0 | 0.0 | 0.00 | 0.03 | 0.03 | 74 | 1020.3 |
| 20260502030005 | 8 | 339 | 0.0 | 1.6 | 0.00 | 0.03 | 0.03 | 74 | 1020.0 |
| 20260502024509 | 8 | 325 | 0.0 | 3.2 | 0.00 | 0.03 | 0.03 | 73 | 1019.9 |
| 20260502023002 | 8 | 327 | 0.0 | 1.6 | 0.00 | 0.03 | 0.03 | 71 | 1019.8 |
| 20260502021600 | 9 | 326 | 0.0 | 0.0 | 0.00 | 0.03 | 0.03 | 70 | 1019.7 |
| 20260502020059 | 9 | 326 | 0.0 | 3.2 | 0.00 | 0.03 | 0.03 | 69 | 1019.3 |
| 20260502014555 | 10 | 321 | 0.0 | 1.6 | 0.00 | 0.03 | 0.03 | 67 | 1019.0 |
| 20260502013053 | 11 | 319 | 0.0 | 3.2 | 0.00 | 0.03 | 0.03 | 64 | 1018.8 |
| 20260502012553 | 11 | 319 | 0.0 | 3.2 | 0.00 | 0.03 | 0.03 | 63 | 1018.6 |
| 20260502012053 | 11 | 317 | 0.0 | 1.6 | 0.00 | 0.03 | 0.03 | 62 | 1018.5 |
| 20260502011558 | 11 | 317 | 0.0 | 3.2 | 0.00 | 0.03 | 0.03 | 61 | 1018.4 |
| 20260502011052 | 11 | 317 | 0.0 | 6.4 | 0.00 | 0.03 | 0.03 | 61 | 1018.4 |
| 20260502010554 | 11 | 317 | 0.0 | 6.4 | 0.00 | 0.03 | 0.03 | 61 | 1018.4 |
| 20260502010052 | 12 | 320 | 0.0 | 6.4 | 0.00 | 0.03 | 0.03 | 60 | 1018.3 |
| 20260502005552 | 12 | 307 | 1.6 | 6.4 | 0.00 | 0.03 | 0.03 | 57 | 1018.3 |
| 20260502005051 | 13 | 325 | 1.6 | 4.8 | 0.00 | 0.03 | 0.03 | 57 | 1018.2 |
| 20260502004608 | 13 | 344 | 1.6 | 4.8 | 0.00 | 0.03 | 0.03 | 56 | 1018.2 |
| 20260502004051 | 13 | 356 | 0.0 | 6.4 | 0.00 | 0.03 | 0.03 | 57 | 1018.1 |
| 20260502003550 | 13 | 280 | 1.6 | 6.4 | 0.00 | 0.03 | 0.03 | 56 | 1018.1 |
| 20260502003051 | 13 | 325 | 0.0 | 8.0 | 0.00 | 0.03 | 0.03 | 56 | 1018.0 |
| 20260502002550 | 13 | 326 | 1.6 | 8.0 | 0.00 | 0.03 | 0.03 | 56 | 1018.0 |
| 20260502002050 | 13 | 326 | 0.0 | 6.4 | 0.00 | 0.03 | 0.03 | 56 | 1018.0 |
| 20260502001550 | 13 | 326 | 1.6 | 6.4 | 0.00 | 0.03 | 0.03 | 56 | 1018.1 |
| 20260502001049 | 13 | 330 | 0.0 | 3.2 | 0.00 | 0.03 | 0.03 | 55 | 1017.9 |
| 20260502000549 | 13 | 329 | 1.6 | 4.8 | 0.00 | 0.03 | 0.03 | 55 | 1017.9 |
| 20260502000049 | 13 | 37 | 1.6 | 6.4 | 0.00 | 0.03 | 0.03 | 55 | 1017.9 |
| 20260501235549 | 13 | 325 | 1.6 | 6.4 | 0.00 | 0.03 | 0.03 | 55 | 1017.9 |
| 20260501235047 | 13 | 49 | 0.0 | 3.2 | 0.00 | 0.03 | 0.03 | 55 | 1017.9 |
| 20260501234548 | 13 | 33 | 0.0 | 3.2 | 0.00 | 0.03 | 0.03 | 57 | 1017.9 |
| 20260501234049 | 12 | 319 | 0.0 | 3.2 | 0.00 | 0.03 | 0.03 | 57 | 1017.9 |
| 20260501233548 | 12 | 319 | 0.0 | 4.8 | 0.00 | 0.03 | 0.03 | 58 | 1017.8 |
| 20260501233048 | 12 | 319 | 0.0 | 4.8 | 0.00 | 0.03 | 0.03 | 58 | 1017.9 |
| 20260501232548 | 12 | 319 | 1.6 | 4.8 | 0.00 | 0.03 | 0.03 | 57 | 1017.9 |
| 20260501232047 | 12 | 326 | 1.6 | 3.2 | 0.00 | 0.03 | 0.03 | 57 | 1017.8 |
| 20260501231553 | 13 | 331 | 0.0 | 1.6 | 0.00 | 0.03 | 0.03 | 57 | 1017.8 |
| 20260501231047 | 13 | 280 | 0.0 | 1.6 | 0.00 | 0.03 | 0.03 | 59 | 1017.9 |
| 20260501230545 | 12 | 281 | 0.0 | 4.8 | 0.00 | 0.03 | 0.03 | 62 | 1018.1 |
| 20260501230047 | 12 | 281 | 0.0 | 4.8 | 0.00 | 0.03 | 0.03 | 62 | 1018.1 |
| 20260501225544 | 12 | 281 | 0.0 | 6.4 | 0.00 | 0.03 | 0.03 | 64 | 1018.1 |
| 20260501225041 | 11 | 281 | 0.0 | 6.4 | 0.00 | 0.03 | 0.03 | 64 | 1018.1 |
| 20260501224548 | 11 | 316 | 0.0 | 3.2 | 0.00 | 0.03 | 0.03 | 66 | 1018.1 |
| 20260501224042 | 11 | 316 | 0.0 | 4.8 | 0.00 | 0.03 | 0.03 | 65 | 1018.1 |
| 20260501223545 | 11 | 317 | 0.0 | 1.6 | 0.00 | 0.03 | 0.03 | 66 | 1018.1 |
| 20260501223104 | 11 | 317 | 0.0 | 4.8 | 0.00 | 0.03 | 0.03 | 67 | 1018.0 |
| 20260501222542 | 11 | 20 | 0.0 | 4.8 | 0.00 | 0.03 | 0.03 | 68 | 1018.0 |
| 20260501222042 | 11 | 316 | 0.0 | 4.8 | 0.00 | 0.03 | 0.03 | 69 | 1018.0 |
| 20260501221541 | 11 | 348 | 0.0 | 4.8 | 0.00 | 0.03 | 0.03 | 70 | 1018.0 |
| 20260501221040 | 11 | 329 | 0.0 | 3.2 | 0.00 | 0.03 | 0.03 | 73 | 1017.9 |
| 20260501220540 | 10 | 1 | 0.0 | 4.8 | 0.00 | 0.03 | 0.03 | 75 | 1017.9 |
| 20260501220040 | 10 | 338 | 0.0 | 4.8 | 0.00 | 0.03 | 0.03 | 75 | 1017.9 |
| 20260501215540 | 10 | 316 | 0.0 | 6.4 | 0.00 | 0.03 | 0.03 | 77 | 1017.9 |
| 20260501215040 | 10 | 341 | 1.6 | 6.4 | 0.00 | 0.03 | 0.03 | 75 | 1017.9 |
| 20260501214540 | 10 | 321 | 0.0 | 8.0 | 0.00 | 0.03 | 0.03 | 77 | 1018.0 |
| 20260501214039 | 10 | 283 | 0.0 | 8.0 | 0.00 | 0.03 | 0.03 | 77 | 1018.1 |
| 20260501213539 | 10 | 358 | 0.0 | 4.8 | 0.00 | 0.03 | 0.03 | 76 | 1018.1 |
| 20260501213041 | 10 | 321 | 0.0 | 3.2 | 0.00 | 0.03 | 0.03 | 76 | 1018.1 |
| 20260501212538 | 10 | 316 | 0.0 | 4.8 | 0.00 | 0.03 | 0.03 | 75 | 1018.2 |
| 20260501212034 | 10 | 321 | 0.0 | 8.0 | 0.00 | 0.03 | 0.03 | 74 | 1018.3 |
| 20260501211534 | 11 | 310 | 0.0 | 8.0 | 0.00 | 0.03 | 0.03 | 75 | 1018.3 |
| 20260501211034 | 11 | 316 | 0.0 | 9.7 | 0.00 | 0.03 | 0.03 | 74 | 1018.4 |
| 20260501210533 | 11 | 349 | 1.6 | 9.7 | 0.00 | 0.03 | 0.03 | 71 | 1018.4 |
| 20260501210033 | 11 | 328 | 3.2 | 4.8 | 0.00 | 0.03 | 0.03 | 70 | 1018.4 |
| 20260501205539 | 11 | 311 | 1.6 | 4.8 | 0.00 | 0.03 | 0.03 | 70 | 1018.4 |
| 20260501205032 | 11 | 10 | 0.0 | 4.8 | 0.00 | 0.03 | 0.03 | 69 | 1018.4 |
| 20260501204533 | 11 | 321 | 1.6 | 4.8 | 0.00 | 0.03 | 0.03 | 66 | 1018.4 |
| 20260501204032 | 11 | 328 | 0.0 | 6.4 | 0.00 | 0.03 | 0.03 | 66 | 1018.5 |
| 20260501203532 | 11 | 315 | 1.6 | 6.4 | 0.00 | 0.03 | 0.03 | 66 | 1018.5 |
| 20260501203047 | 11 | 337 | 3.2 | 9.7 | 0.00 | 0.03 | 0.03 | 64 | 1018.5 |
| 20260501202532 | 11 | 333 | 3.2 | 9.7 | 0.00 | 0.03 | 0.03 | 64 | 1018.5 |
| 20260501202032 | 11 | 32 | 0.0 | 9.7 | 0.00 | 0.03 | 0.03 | 65 | 1018.5 |
| 20260501201531 | 11 | 4 | 3.2 | 9.7 | 0.00 | 0.03 | 0.03 | 62 | 1018.6 |
| 20260501201030 | 11 | 58 | 0.0 | 6.4 | 0.00 | 0.03 | 0.03 | 64 | 1018.5 |
| 20260501200532 | 11 | 39 | 0.0 | 6.4 | 0.00 | 0.03 | 0.03 | 61 | 1018.5 |
| 20260501200034 | 11 | 325 | 1.6 | 8.0 | 0.00 | 0.03 | 0.03 | 61 | 1018.6 |
| 20260501195531 | 11 | 13 | 1.6 | 9.7 | 0.00 | 0.03 | 0.03 | 62 | 1018.6 |
| 20260501195031 | 11 | 338 | 1.6 | 12.9 | 0.00 | 0.03 | 0.03 | 63 | 1018.6 |
| 20260501194530 | 11 | 35 | 6.4 | 12.9 | 0.00 | 0.03 | 0.03 | 61 | 1018.5 |
| 20260501194030 | 11 | 34 | 6.4 | 11.3 | 0.00 | 0.03 | 0.03 | 62 | 1018.5 |
| 20260501193530 | 11 | 27 | 3.2 | 6.4 | 0.00 | 0.03 | 0.03 | 61 | 1018.5 |
| 20260501193029 | 11 | 27 | 1.6 | 12.9 | 0.00 | 0.03 | 0.03 | 61 | 1018.4 |
| 20260501192532 | 11 | 49 | 1.6 | 9.7 | 0.00 | 0.03 | 0.03 | 62 | 1018.4 |
| 20260501192029 | 11 | 315 | 1.6 | 11.3 | 0.00 | 0.03 | 0.03 | 63 | 1018.4 |
| 20260501191529 | 11 | 319 | 4.8 | 11.3 | 0.00 | 0.03 | 0.03 | 63 | 1018.4 |
| 20260501191029 | 11 | 29 | 1.6 | 12.9 | 0.00 | 0.03 | 0.03 | 63 | 1018.4 |
| 20260501190529 | 11 | 45 | 1.6 | 14.5 | 0.00 | 0.03 | 0.03 | 61 | 1018.4 |
| 20260501190034 | 11 | 53 | 1.6 | 14.5 | 0.00 | 0.03 | 0.03 | 63 | 1018.4 |
| 20260501185528 | 11 | 345 | 3.2 | 11.3 | 0.00 | 0.03 | 0.03 | 63 | 1018.4 |
| 20260501185028 | 11 | 316 | 3.2 | 11.3 | 0.00 | 0.03 | 0.03 | 63 | 1018.5 |
| 20260501184550 | 11 | 39 | 3.2 | 11.3 | 0.00 | 0.03 | 0.03 | 63 | 1018.5 |
| 20260501184028 | 11 | 29 | 6.4 | 11.3 | 0.00 | 0.03 | 0.03 | 62 | 1018.5 |
| 20260501183528 | 11 | 53 | 1.6 | 9.7 | 0.00 | 0.03 | 0.03 | 64 | 1018.5 |
| 20260501183028 | 11 | 327 | 1.6 | 11.3 | 0.00 | 0.03 | 0.03 | 62 | 1018.5 |
| 20260501182526 | 11 | 51 | 4.8 | 11.3 | 0.00 | 0.03 | 0.03 | 61 | 1018.6 |
| 20260501182027 | 11 | 56 | 3.2 | 14.5 | 0.00 | 0.03 | 0.03 | 60 | 1018.6 |
| 20260501181527 | 11 | 44 | 6.4 | 14.5 | 0.00 | 0.03 | 0.03 | 60 | 1018.6 |